Time;durP1;ratioP1;P1;durP2;ratioP2;P2;SDS_P1;SDS_P2;PMS_P1;PMS_P2;Temp;Humidity;BMP_temperature;BMP_pressure;BME280_temperature;BME280_humidity;BME280_pressure;Samples;Min_cycle;Max_cycle;Signal;HPM_P1;HPM_P2
2021/05/07 00:03:00;;;;;;;6.13;2.33;;;12.70;99.90;;;;;;5051720;28;20041;-47
2021/05/07 00:06:06;;;;;;;10.90;2.63;;;12.70;99.90;;;;;;5051759;28;20036;-49
2021/05/07 00:09:10;;;;;;;10.85;2.58;;;12.60;99.90;;;;;;5051733;28;20044;-52
2021/05/07 00:12:15;;;;;;;9.88;2.83;;;12.50;99.90;;;;;;5050457;28;20044;-47
2021/05/07 00:15:20;;;;;;;9.27;2.30;;;12.50;99.90;;;;;;5051297;28;20029;-48
2021/05/07 00:18:24;;;;;;;10.65;2.67;;;12.30;99.90;;;;;;5051364;28;20487;-51
2021/05/07 00:21:28;;;;;;;7.05;2.53;;;12.00;99.90;;;;;;5051545;28;20419;-50
2021/05/07 00:24:32;;;;;;;9.75;2.33;;;12.00;99.90;;;;;;5051201;28;20037;-51
2021/05/07 00:27:35;;;;;;;7.25;2.10;;;12.00;99.90;;;;;;5051216;28;20039;-49
2021/05/07 00:30:40;;;;;;;10.13;2.20;;;11.90;99.90;;;;;;5051098;28;20033;-49
2021/05/07 00:33:45;;;;;;;11.90;2.78;;;11.90;99.90;;;;;;5031228;28;20048;-47
2021/05/07 00:36:49;;;;;;;8.50;2.72;;;11.90;99.90;;;;;;5030706;28;20048;-49
2021/05/07 00:39:53;;;;;;;8.00;2.47;;;12.00;99.90;;;;;;5031067;28;20864;-48
2021/05/07 00:42:57;;;;;;;10.23;2.00;;;12.00;99.90;;;;;;5030825;28;20042;-49
2021/05/07 00:46:04;;;;;;;8.10;2.10;;;12.10;99.90;;;;;;5029710;28;20052;-50
2021/05/07 00:49:08;;;;;;;13.68;2.83;;;12.20;99.90;;;;;;5038992;28;20033;-47
2021/05/07 00:52:13;;;;;;;12.15;2.78;;;12.30;99.90;;;;;;5035148;28;20040;-51
2021/05/07 00:55:17;;;;;;;9.27;3.35;;;12.40;99.90;;;;;;5050106;28;20056;-47
2021/05/07 00:58:22;;;;;;;13.95;3.08;;;12.50;99.90;;;;;;5030797;28;20033;-50
2021/05/07 01:01:28;;;;;;;13.93;3.92;;;12.60;99.90;;;;;;5030526;28;20140;-46
2021/05/07 01:04:32;;;;;;;13.75;3.67;;;12.70;99.90;;;;;;5019930;28;20048;-47
2021/05/07 01:07:37;;;;;;;16.15;3.72;;;12.80;99.90;;;;;;5049699;28;20044;-49
2021/05/07 01:10:42;;;;;;;10.05;4.05;;;12.90;99.90;;;;;;5048992;28;20036;-50
2021/05/07 01:13:47;;;;;;;16.88;3.75;;;12.90;99.90;;;;;;5049422;28;20044;-52
2021/05/07 01:16:53;;;;;;;16.15;5.45;;;13.00;99.90;;;;;;5049843;28;20044;-47
2021/05/07 01:20:24;;;;;;;13.93;3.90;;;13.10;99.90;;;;;;5049780;28;20063;-51
2021/05/07 01:23:29;;;;;;;14.48;4.65;;;13.10;99.90;;;;;;5049479;28;20063;-49
2021/05/07 01:26:34;;;;;;;16.95;3.70;;;13.20;99.90;;;;;;5049426;28;20048;-53
2021/05/07 01:29:38;;;;;;;15.73;4.00;;;13.20;99.90;;;;;;5049697;28;20046;-46
2021/05/07 01:32:43;;;;;;;10.55;4.10;;;13.20;99.90;;;;;;5050498;28;20324;-50
2021/05/07 01:35:49;;;;;;;14.73;4.25;;;13.20;99.90;;;;;;5049836;28;20052;-46
2021/05/07 01:38:53;;;;;;;18.00;6.22;;;13.20;99.90;;;;;;5050628;28;20067;-51
2021/05/07 01:41:57;;;;;;;13.85;4.50;;;13.20;99.90;;;;;;5050299;28;20048;-45
2021/05/07 01:45:04;;;;;;;13.63;4.63;;;13.20;99.90;;;;;;5050082;28;20052;-46
2021/05/07 01:48:16;;;;;;;14.82;4.25;;;13.10;99.90;;;;;;5049705;28;20047;-49
2021/05/07 01:51:21;;;;;;;14.00;4.75;;;13.10;99.90;;;;;;5049989;28;20466;-46
2021/05/07 01:54:26;;;;;;;10.05;4.30;;;13.00;99.90;;;;;;5048714;28;20415;-48
2021/05/07 01:57:31;;;;;;;16.55;4.10;;;13.10;99.90;;;;;;5050625;28;20425;-50
2021/05/07 02:00:36;;;;;;;19.13;5.55;;;13.10;99.90;;;;;;5048867;28;20522;-45
2021/05/07 02:03:41;;;;;;;16.98;4.45;;;13.10;99.90;;;;;;5050186;28;20059;-45
2021/05/07 02:06:47;;;;;;;11.65;4.60;;;13.00;99.90;;;;;;5050038;28;20039;-45
2021/05/07 02:09:52;;;;;;;10.43;3.83;;;12.90;99.90;;;;;;5048649;28;20040;-49
2021/05/07 02:12:57;;;;;;;11.15;3.80;;;13.00;99.90;;;;;;5048779;28;20056;-51
2021/05/07 02:16:01;;;;;;;16.27;3.97;;;12.90;99.90;;;;;;5048132;28;20426;-49
2021/05/07 02:19:06;;;;;;;12.68;4.25;;;12.90;99.90;;;;;;5049653;28;20059;-50
2021/05/07 02:22:10;;;;;;;16.77;3.92;;;12.80;99.90;;;;;;5048678;28;20519;-51
2021/05/07 02:25:17;;;;;;;11.57;3.90;;;12.90;99.90;;;;;;5048071;28;20399;-50
2021/05/07 02:28:21;;;;;;;14.55;4.50;;;12.80;99.90;;;;;;5049603;28;20043;-51
2021/05/07 02:31:26;;;;;;;17.08;4.38;;;12.80;99.90;;;;;;5048163;28;20406;-52
2021/05/07 02:34:30;;;;;;;16.25;5.57;;;12.80;99.90;;;;;;5049092;28;20040;-48
2021/05/07 02:37:36;;;;;;;17.23;4.63;;;12.70;99.90;;;;;;5049545;28;20052;-49
2021/05/07 02:40:40;;;;;;;12.05;4.30;;;12.70;99.90;;;;;;5047654;28;20506;-49
2021/05/07 02:43:44;;;;;;;14.90;4.57;;;12.70;99.90;;;;;;5049611;28;20048;-49
2021/05/07 02:46:54;;;;;;;10.80;4.00;;;12.60;99.90;;;;;;5047672;28;20056;-49
2021/05/07 02:49:59;;;;;;;17.63;4.40;;;12.60;99.90;;;;;;5048363;28;20040;-48
2021/05/07 02:53:05;;;;;;;14.13;4.32;;;12.50;99.90;;;;;;5048477;28;20044;-48
2021/05/07 02:56:09;;;;;;;10.18;4.40;;;12.40;99.90;;;;;;5048718;28;20513;-47
2021/05/07 02:59:15;;;;;;;19.13;4.20;;;12.40;99.90;;;;;;5048931;28;20044;-48
2021/05/07 03:02:19;;;;;;;11.90;4.13;;;12.40;99.90;;;;;;5049192;28;20311;-47
2021/05/07 03:05:23;;;;;;;15.98;4.10;;;12.40;99.90;;;;;;5048519;28;20048;-48
2021/05/07 03:08:27;;;;;;;10.93;3.83;;;12.30;99.90;;;;;;5049035;28;20044;-49
2021/05/07 03:11:31;;;;;;;14.27;4.18;;;12.30;99.90;;;;;;5028574;28;20044;-50
2021/05/07 03:14:35;;;;;;;9.68;3.78;;;12.30;99.90;;;;;;5032516;28;20585;-52
2021/05/07 03:17:39;;;;;;;16.83;4.68;;;12.10;99.90;;;;;;5033035;28;20510;-45
2021/05/07 03:20:44;;;;;;;18.00;4.43;;;12.20;99.90;;;;;;5032451;28;20531;-47
2021/05/07 03:23:48;;;;;;;12.63;4.07;;;12.20;99.90;;;;;;5032895;28;20052;-50
2021/05/07 03:26:52;;;;;;;14.60;4.28;;;12.30;99.90;;;;;;5032130;28;20052;-46
2021/05/07 03:29:56;;;;;;;8.77;3.92;;;12.30;99.90;;;;;;5035215;28;20505;-46
2021/05/07 03:33:02;;;;;;;16.55;3.58;;;12.40;99.90;;;;;;5045200;28;20063;-45
2021/05/07 03:36:07;;;;;;;11.95;3.90;;;12.60;99.90;;;;;;5052041;28;20032;-50
2021/05/07 03:39:11;;;;;;;12.07;4.20;;;12.70;99.90;;;;;;5049883;28;20052;-46
2021/05/07 03:42:15;;;;;;;11.13;3.33;;;12.70;99.90;;;;;;5041862;28;20044;-47
2021/05/07 03:45:20;;;;;;;12.95;3.78;;;12.80;99.90;;;;;;5051862;28;20040;-47
2021/05/07 03:48:24;;;;;;;10.95;3.78;;;12.90;99.90;;;;;;5051719;28;20036;-47
2021/05/07 03:51:28;;;;;;;14.95;4.10;;;12.90;99.90;;;;;;5052019;28;20044;-45
2021/05/07 03:54:32;;;;;;;9.45;3.58;;;12.90;99.90;;;;;;5050919;28;20044;-46
2021/05/07 03:57:36;;;;;;;10.80;3.50;;;12.90;99.90;;;;;;5051659;28;20064;-47
2021/05/07 04:00:40;;;;;;;10.18;2.85;;;12.90;99.90;;;;;;5051196;28;20100;-45
2021/05/07 04:03:44;;;;;;;9.10;2.97;;;13.00;99.90;;;;;;5052078;28;20067;-46
2021/05/07 04:06:48;;;;;;;12.88;3.33;;;13.00;99.90;;;;;;5051478;28;20054;-45
2021/05/07 04:16:01;;;;;;;14.88;4.47;;;13.00;99.90;;;;;;5031562;28;20510;-46
2021/05/07 04:19:05;;;;;;;9.95;3.40;;;13.10;99.90;;;;;;5032524;28;20125;-51
2021/05/07 04:22:09;;;;;;;6.47;3.20;;;13.10;99.90;;;;;;5030921;28;20037;-47
2021/05/07 04:25:13;;;;;;;6.88;3.58;;;13.20;99.90;;;;;;5031204;28;20026;-45
2021/05/07 04:28:18;;;;;;;9.18;2.75;;;13.30;99.90;;;;;;5035113;28;20044;-45
2021/05/07 04:31:22;;;;;;;9.15;2.80;;;13.40;99.90;;;;;;5047516;28;20029;-47
2021/05/07 04:34:27;;;;;;;6.55;2.60;;;13.50;99.90;;;;;;5047552;28;20431;-46
2021/05/07 04:37:32;;;;;;;7.55;2.45;;;13.50;99.90;;;;;;5045592;28;20056;-47
2021/05/07 04:40:36;;;;;;;5.28;2.15;;;13.70;99.90;;;;;;5050028;28;20051;-46
2021/05/07 04:43:40;;;;;;;5.50;2.35;;;13.70;99.90;;;;;;5034493;28;20036;-46
2021/05/07 04:46:44;;;;;;;8.13;2.67;;;13.80;99.90;;;;;;5030387;28;20037;-46
2021/05/07 04:49:48;;;;;;;4.65;2.72;;;13.80;99.90;;;;;;5039675;28;20053;-47
2021/05/07 04:52:53;;;;;;;6.20;2.42;;;13.90;99.90;;;;;;5031098;28;20033;-47
2021/05/07 04:55:57;;;;;;;9.73;2.58;;;14.00;99.90;;;;;;5030508;28;20060;-48
2021/05/07 04:59:01;;;;;;;7.25;2.40;;;14.10;99.90;;;;;;5031370;28;20050;-47
2021/05/07 05:02:05;;;;;;;6.03;2.25;;;14.30;99.90;;;;;;5040009;28;20044;-46
2021/05/07 05:05:09;;;;;;;7.18;2.22;;;15.00;99.90;;;;;;5030628;28;20046;-46
2021/05/07 05:08:23;;;;;;;7.75;2.35;;;16.00;99.90;;;;;;5029671;28;20045;-46
2021/05/07 05:11:27;;;;;;;10.68;2.13;;;16.00;99.90;;;;;;5031676;28;20048;-47
2021/05/07 05:14:31;;;;;;;5.72;2.38;;;15.80;99.90;;;;;;5030521;28;20048;-46
2021/05/07 05:17:36;;;;;;;7.18;2.75;;;15.60;99.90;;;;;;5030030;28;20409;-47
2021/05/07 05:20:40;;;;;;;10.68;2.53;;;15.40;99.90;;;;;;5030248;28;20052;-48
2021/05/07 05:23:46;;;;;;;7.20;2.45;;;15.00;99.90;;;;;;5030687;28;20048;-48
2021/05/07 05:26:50;;;;;;;6.93;2.70;;;14.80;99.90;;;;;;5038797;28;20044;-47
2021/05/07 05:29:54;;;;;;;5.95;2.10;;;14.80;99.90;;;;;;5032434;28;20045;-47
2021/05/07 05:32:58;;;;;;;5.85;2.10;;;14.80;99.90;;;;;;5029309;28;20041;-48
2021/05/07 05:36:03;;;;;;;6.43;2.30;;;14.80;99.90;;;;;;5034322;28;20040;-47
2021/05/07 05:39:09;;;;;;;7.25;2.58;;;14.80;99.90;;;;;;5033215;28;20052;-49
2021/05/07 05:42:13;;;;;;;7.40;2.25;;;14.80;99.90;;;;;;5030188;28;20033;-51
2021/05/07 05:45:17;;;;;;;6.32;2.38;;;14.90;99.90;;;;;;5031230;28;20036;-53
2021/05/07 05:48:23;;;;;;;11.57;2.35;;;14.90;99.90;;;;;;5031012;28;20033;-52
2021/05/07 05:51:27;;;;;;;7.78;2.00;;;14.90;99.90;;;;;;5027387;28;20052;-47
2021/05/07 05:54:31;;;;;;;7.20;1.80;;;15.00;99.90;;;;;;5039313;28;20052;-52
2021/05/07 05:57:35;;;;;;;6.43;2.10;;;15.10;99.90;;;;;;5022082;28;20573;-53
2021/05/07 06:00:41;;;;;;;12.00;2.33;;;15.10;99.90;;;;;;4993404;28;21583;-47
2021/05/07 06:03:46;;;;;;;7.00;2.05;;;15.30;99.90;;;;;;5008309;28;21027;-51
2021/05/07 06:06:50;;;;;;;4.50;2.00;;;15.40;99.90;;;;;;5022181;28;20056;-52
2021/05/07 06:09:54;;;;;;;9.82;2.88;;;15.50;99.90;;;;;;5028926;28;20049;-49
2021/05/07 06:12:58;;;;;;;12.80;2.55;;;16.30;99.90;;;;;;5027145;28;20043;-50
2021/05/07 06:16:03;;;;;;;7.88;1.95;;;17.30;99.90;;;;;;5025899;28;20041;-48
2021/05/07 06:19:10;;;;;;;4.70;1.95;;;17.70;99.90;;;;;;5040496;28;20044;-49
2021/05/07 06:22:14;;;;;;;4.70;1.55;;;18.20;99.90;;;;;;5027515;28;20037;-51
2021/05/07 06:25:25;;;;;;;5.07;1.90;;;18.20;99.90;;;;;;5035451;28;20041;-48
2021/05/07 06:28:30;;;;;;;6.43;2.20;;;17.70;99.90;;;;;;5035873;28;20057;-48
2021/05/07 06:31:34;;;;;;;6.00;2.00;;;17.20;99.90;;;;;;5032549;28;20029;-51
2021/05/07 06:34:38;;;;;;;5.40;1.90;;;16.60;99.90;;;;;;5014971;28;20907;-43
2021/05/07 06:37:42;;;;;;;4.70;1.80;;;16.90;99.90;;;;;;5028817;28;20030;-45
2021/05/07 06:40:46;;;;;;;7.25;1.90;;;17.30;99.90;;;;;;5027173;28;20044;-45
2021/05/07 06:43:51;;;;;;;6.47;1.70;;;18.00;99.90;;;;;;5029862;28;20042;-50
2021/05/07 06:46:55;;;;;;;5.78;1.70;;;18.50;99.90;;;;;;5027784;28;20420;-50
2021/05/07 06:49:59;;;;;;;6.78;1.55;;;18.80;99.90;;;;;;5032235;28;20033;-49
2021/05/07 06:53:04;;;;;;;5.35;1.85;;;19.00;99.90;;;;;;5034236;28;20032;-48
2021/05/07 06:56:09;;;;;;;3.95;1.50;;;18.90;99.90;;;;;;5036794;28;20032;-46
2021/05/07 06:59:15;;;;;;;2.78;1.42;;;18.50;99.90;;;;;;5032188;28;20048;-49
2021/05/07 07:02:19;;;;;;;4.78;1.70;;;18.30;99.90;;;;;;5034145;28;20041;-50
2021/05/07 07:05:24;;;;;;;4.30;1.73;;;18.10;99.90;;;;;;5033975;28;20037;-47
2021/05/07 07:08:28;;;;;;;7.18;2.10;;;18.10;99.90;;;;;;5030340;28;20044;-50
2021/05/07 07:11:31;;;;;;;5.25;1.50;;;18.00;99.90;;;;;;5034520;28;20458;-45
2021/05/07 07:14:38;;;;;;;9.60;1.65;;;18.20;99.90;;;;;;5034618;28;20062;-50
2021/05/07 07:17:42;;;;;;;7.32;1.70;;;18.70;99.90;;;;;;5032744;28;20045;-50
2021/05/07 07:20:47;;;;;;;6.22;1.50;;;19.70;99.90;;;;;;5031119;28;20037;-50
2021/05/07 07:23:51;;;;;;;4.90;1.50;;;20.60;99.90;;;;;;5031334;28;20067;-47
2021/05/07 07:26:55;;;;;;;5.50;1.33;;;20.60;99.90;;;;;;5038775;28;20052;-51
2021/05/07 07:29:59;;;;;;;5.60;1.90;;;20.00;99.90;;;;;;5030283;28;20048;-47
2021/05/07 07:33:03;;;;;;;6.88;1.60;;;20.20;99.90;;;;;;5034269;28;20411;-46
2021/05/07 07:36:07;;;;;;;5.22;1.38;;;21.20;99.90;;;;;;5035061;28;20034;-48
2021/05/07 07:39:18;;;;;;;4.63;1.50;;;22.80;99.90;;;;;;5030951;28;20037;-48
2021/05/07 07:42:22;;;;;;;5.00;1.88;;;24.40;99.60;;;;;;5031155;28;20049;-51
2021/05/07 07:45:26;;;;;;;6.25;1.95;;;24.80;98.80;;;;;;5032720;28;20038;-47
2021/05/07 07:48:31;;;;;;;4.80;1.40;;;24.20;99.00;;;;;;5033105;28;20048;-47
2021/05/07 07:51:35;;;;;;;4.03;1.35;;;23.50;99.90;;;;;;5030988;28;20045;-47
2021/05/07 07:54:39;;;;;;;5.75;1.40;;;22.90;99.70;;;;;;5038217;28;20044;-46
2021/05/07 07:57:44;;;;;;;8.88;1.70;;;22.30;99.90;;;;;;5039740;28;20045;-49
2021/05/07 08:00:49;;;;;;;4.90;1.80;;;21.60;99.90;;;;;;5033944;28;20057;-47
2021/05/07 08:03:53;;;;;;;5.28;2.00;;;20.10;99.90;;;;;;5033225;28;20040;-47
2021/05/07 08:07:00;;;;;;;2.83;1.60;;;19.40;99.90;;;;;;5030548;28;20040;-46
2021/05/07 08:10:06;;;;;;;9.35;1.83;;;19.70;99.90;;;;;;5035404;28;20037;-48
2021/05/07 08:13:10;;;;;;;5.75;1.92;;;19.50;99.90;;;;;;5035738;28;20044;-48
2021/05/07 08:16:14;;;;;;;7.95;2.53;;;19.30;99.90;;;;;;5034672;28;20040;-47
2021/05/07 08:19:18;;;;;;;7.97;2.22;;;19.10;99.90;;;;;;5029837;28;20061;-48
2021/05/07 08:22:22;;;;;;;3.33;1.80;;;19.50;99.90;;;;;;5030006;28;20036;-47
2021/05/07 08:25:26;;;;;;;7.25;2.65;;;18.60;99.90;;;;;;5030495;28;20517;-46
2021/05/07 08:28:30;;;;;;;5.43;2.40;;;18.40;99.90;;;;;;5029096;28;20050;-46
2021/05/07 08:31:34;;;;;;;4.65;1.70;;;18.50;99.90;;;;;;5040950;28;20037;-44
2021/05/07 08:34:42;;;;;;;3.42;1.30;;;18.60;99.90;;;;;;5033786;28;20029;-44
2021/05/07 08:37:46;;;;;;;6.93;1.80;;;18.60;99.90;;;;;;5041733;28;20052;-44
2021/05/07 08:40:50;;;;;;;5.10;1.67;;;18.40;99.90;;;;;;5031718;28;20051;-45
2021/05/07 08:43:54;;;;;;;8.38;1.90;;;18.40;99.90;;;;;;5035537;28;20048;-44
2021/05/07 08:46:59;;;;;;;7.88;2.08;;;18.40;99.90;;;;;;5032690;28;20036;-45
2021/05/07 08:50:06;;;;;;;6.85;2.08;;;18.50;99.90;;;;;;5032079;28;20037;-43
2021/05/07 08:53:10;;;;;;;4.25;1.50;;;18.30;99.90;;;;;;5006325;28;20738;-47
2021/05/07 08:56:15;;;;;;;7.20;1.70;;;18.50;99.90;;;;;;5031680;28;20056;-49
2021/05/07 08:59:19;;;;;;;6.72;1.70;;;18.50;99.90;;;;;;5032613;28;20048;-47
2021/05/07 09:02:24;;;;;;;9.93;2.35;;;18.50;99.90;;;;;;5029123;28;20037;-49
2021/05/07 09:05:33;;;;;;;8.18;2.22;;;18.70;99.90;;;;;;5021281;28;20045;-47
2021/05/07 09:08:37;;;;;;;8.13;1.80;;;19.00;99.90;;;;;;5029819;28;20054;-45
2021/05/07 09:11:44;;;;;;;6.00;1.92;;;19.00;99.90;;;;;;5032000;28;20047;-52
2021/05/07 09:14:49;;;;;;;6.97;1.80;;;19.40;99.90;;;;;;5030107;28;20040;-47
2021/05/07 09:18:01;;;;;;;9.00;2.17;;;19.40;99.90;;;;;;5031741;28;20417;-45
2021/05/07 09:21:05;;;;;;;6.65;1.85;;;19.10;99.90;;;;;;5028484;28;20030;-46
2021/05/07 09:24:09;;;;;;;5.22;2.08;;;19.40;99.90;;;;;;5032236;28;20049;-46
2021/05/07 09:27:22;;;;;;;7.22;1.85;;;19.60;99.90;;;;;;5033500;28;20048;-47
2021/05/07 09:30:29;;;;;;;7.45;2.10;;;19.20;99.90;;;;;;5028819;28;20040;-45
2021/05/07 09:33:40;;;;;;;8.32;1.67;;;19.60;99.90;;;;;;5035794;28;20026;-45
2021/05/07 09:36:45;;;;;;;5.70;2.03;;;19.70;99.90;;;;;;5033603;28;20403;-45
2021/05/07 09:39:51;;;;;;;6.00;1.70;;;19.80;99.90;;;;;;5031769;28;20029;-47
2021/05/07 09:43:07;;;;;;;5.93;1.73;;;19.90;99.90;;;;;;5031298;28;20041;-48
2021/05/07 09:46:11;;;;;;;3.83;1.48;;;19.40;99.90;;;;;;5040176;28;20032;-47
2021/05/07 09:49:25;;;;;;;6.53;2.17;;;19.50;99.90;;;;;;5039229;28;20046;-48
2021/05/07 09:52:30;;;;;;;4.32;2.05;;;19.50;99.90;;;;;;5043427;28;20040;-47
2021/05/07 09:55:35;;;;;;;3.97;2.25;;;20.00;99.90;;;;;;5035975;28;20040;-49
2021/05/07 09:58:39;;;;;;;5.55;1.90;;;20.80;99.90;;;;;;5040557;28;20040;-47
2021/05/07 10:01:44;;;;;;;7.07;2.15;;;20.10;99.90;;;;;;5028600;28;20061;-48
2021/05/07 10:04:48;;;;;;;5.88;1.73;;;20.10;99.90;;;;;;5035162;28;20040;-49
2021/05/07 10:07:53;;;;;;;6.65;2.00;;;20.20;99.90;;;;;;5035934;28;20045;-49
2021/05/07 10:10:59;;;;;;;6.18;1.90;;;20.20;99.90;;;;;;5038134;28;20544;-48
2021/05/07 10:14:15;;;;;;;5.75;1.70;;;20.10;99.90;;;;;;5032456;28;20052;-47
2021/05/07 10:17:20;;;;;;;5.93;1.95;;;19.80;99.90;;;;;;5028577;28;20021;-48
2021/05/07 10:20:30;;;;;;;5.53;2.00;;;19.80;99.90;;;;;;5032803;28;20033;-49
2021/05/07 10:23:35;;;;;;;8.98;2.22;;;19.70;99.90;;;;;;5034254;28;20034;-47
2021/05/07 10:26:45;;;;;;;3.92;1.90;;;19.80;99.90;;;;;;5038746;28;20064;-47
2021/05/07 10:29:55;;;;;;;6.53;2.47;;;19.90;99.90;;;;;;5036860;28;20049;-47
2021/05/07 10:33:15;;;;;;;9.00;2.25;;;20.00;99.90;;;;;;5028801;28;20523;-47
2021/05/07 10:36:19;;;;;;;9.40;3.28;;;20.20;99.90;;;;;;5038232;28;20401;-49
2021/05/07 10:39:31;;;;;;;8.05;2.50;;;20.20;99.90;;;;;;5039327;28;20506;-47
2021/05/07 10:42:35;;;;;;;9.85;2.00;;;20.20;99.90;;;;;;5040579;28;20037;-47
2021/05/07 10:45:51;;;;;;;4.75;1.52;;;20.00;99.90;;;;;;5038716;28;20409;-46
2021/05/07 10:48:57;;;;;;;6.03;2.00;;;19.90;99.90;;;;;;5035922;28;20037;-48
2021/05/07 10:52:03;;;;;;;9.63;2.40;;;19.80;99.90;;;;;;5032396;28;20044;-48
2021/05/07 10:55:08;;;;;;;11.35;2.65;;;19.70;99.90;;;;;;5035398;28;20046;-47
2021/05/07 10:58:13;;;;;;;7.05;2.30;;;19.60;99.90;;;;;;5038255;28;20159;-47
2021/05/07 11:01:25;;;;;;;9.18;2.70;;;19.50;99.90;;;;;;5032417;28;20497;-49
2021/05/07 11:04:44;;;;;;;9.60;2.28;;;19.50;99.90;;;;;;5037510;28;20551;-47
2021/05/07 11:07:52;;;;;;;8.55;1.90;;;19.70;99.90;;;;;;5037829;28;20063;-49
2021/05/07 11:10:56;;;;;;;12.38;2.58;;;20.20;99.90;;;;;;5033874;28;20046;-46
2021/05/07 11:14:00;;;;;;;7.45;2.53;;;20.20;99.90;;;;;;5034690;28;20049;-47
2021/05/07 11:17:04;;;;;;;4.90;2.00;;;20.10;99.90;;;;;;5035462;28;20044;-52
2021/05/07 11:20:09;;;;;;;9.38;2.33;;;19.70;99.90;;;;;;5035465;28;20033;-50
2021/05/07 11:23:14;;;;;;;12.82;2.78;;;19.60;99.90;;;;;;5036612;28;20399;-48
2021/05/07 11:26:18;;;;;;;4.20;2.00;;;19.50;99.90;;;;;;5032821;28;20056;-47
2021/05/07 11:29:31;;;;;;;9.98;2.70;;;19.30;99.90;;;;;;5034282;28;20410;-47
2021/05/07 11:32:35;;;;;;;6.85;2.17;;;19.40;99.90;;;;;;5036359;28;20042;-47
2021/05/07 11:35:40;;;;;;;7.70;2.25;;;19.50;99.90;;;;;;5038671;28;20052;-45
2021/05/07 11:38:44;;;;;;;7.30;1.80;;;19.60;99.90;;;;;;5042479;28;20040;-48
2021/05/07 11:41:49;;;;;;;9.55;2.40;;;19.60;99.90;;;;;;5035815;28;20056;-49
2021/05/07 11:44:53;;;;;;;9.55;2.45;;;19.40;99.90;;;;;;5038302;28;20052;-48
2021/05/07 11:47:57;;;;;;;4.70;1.92;;;19.40;99.90;;;;;;5040176;28;20037;-47
2021/05/07 11:51:08;;;;;;;10.38;1.95;;;19.20;99.90;;;;;;5041680;28;20402;-46
2021/05/07 11:54:12;;;;;;;8.25;2.40;;;19.10;99.90;;;;;;5040782;28;20036;-46
2021/05/07 11:57:21;;;;;;;6.32;1.90;;;18.90;99.90;;;;;;5039306;28;20045;-47
2021/05/07 12:00:26;;;;;;;10.40;2.40;;;18.70;99.90;;;;;;5037977;28;20033;-48
2021/05/07 12:03:44;;;;;;;10.18;2.42;;;18.90;99.90;;;;;;5039660;28;20036;-47
2021/05/07 12:06:48;;;;;;;11.20;1.75;;;18.60;99.90;;;;;;5042145;28;20621;-47
2021/05/07 12:09:53;;;;;;;7.95;1.95;;;18.80;99.90;;;;;;5037248;28;20052;-46
2021/05/07 12:12:58;;;;;;;8.75;2.20;;;18.80;99.90;;;;;;5036282;28;20048;-45
2021/05/07 12:16:03;;;;;;;4.65;1.27;;;18.80;99.90;;;;;;5039812;28;20041;-48
2021/05/07 12:19:07;;;;;;;4.00;1.50;;;18.50;99.90;;;;;;5034090;28;20033;-49
2021/05/07 12:22:21;;;;;;;5.65;1.75;;;18.50;99.90;;;;;;5036609;28;20051;-47
2021/05/07 12:25:27;;;;;;;6.00;1.40;;;18.80;99.90;;;;;;5045406;28;20052;-47
2021/05/07 12:28:32;;;;;;;6.55;1.20;;;19.00;99.90;;;;;;5046948;28;20518;-48
2021/05/07 12:31:36;;;;;;;4.65;1.67;;;19.20;99.90;;;;;;5047152;28;20048;-47
2021/05/07 12:34:41;;;;;;;5.88;1.98;;;19.30;99.90;;;;;;5049224;28;20067;-47
2021/05/07 12:37:46;;;;;;;8.60;2.53;;;19.40;99.90;;;;;;5052467;28;20061;-47
2021/05/07 12:40:57;;;;;;;5.55;1.48;;;19.30;99.90;;;;;;5048053;28;20037;-48
2021/05/07 12:44:01;;;;;;;7.72;1.70;;;19.00;99.90;;;;;;5042980;28;20036;-47
2021/05/07 12:47:06;;;;;;;10.05;1.67;;;18.60;99.90;;;;;;5042434;28;20504;-48
2021/05/07 12:50:11;;;;;;;5.45;1.55;;;18.50;99.90;;;;;;5042621;28;20423;-47
2021/05/07 12:53:21;;;;;;;6.28;1.60;;;18.50;99.90;;;;;;5048090;28;20032;-47
2021/05/07 12:56:26;;;;;;;12.88;1.48;;;18.40;99.90;;;;;;5049835;28;20585;-48
2021/05/07 12:59:30;;;;;;;7.47;1.65;;;18.60;99.90;;;;;;5048713;28;20055;-47
2021/05/07 13:02:34;;;;;;;8.15;2.08;;;18.70;99.90;;;;;;5045298;28;20055;-45
2021/05/07 13:05:39;;;;;;;8.18;1.50;;;18.30;99.90;;;;;;5052310;28;20047;-50
2021/05/07 13:08:44;;;;;;;11.55;1.70;;;18.40;99.90;;;;;;5047317;28;20406;-48
2021/05/07 13:11:48;;;;;;;9.95;1.55;;;18.50;99.90;;;;;;5043230;28;20314;-45
2021/05/07 13:14:52;;;;;;;8.45;1.60;;;18.50;99.90;;;;;;5050294;28;20047;-48
2021/05/07 13:17:57;;;;;;;5.60;2.03;;;18.60;99.90;;;;;;5043573;22;20069;-47
2021/05/07 13:21:02;;;;;;;8.93;2.35;;;18.80;99.90;;;;;;5030778;28;21099;-53
2021/05/07 13:24:08;;;;;;;9.27;2.50;;;18.90;99.90;;;;;;5024867;28;20053;-48
2021/05/07 13:27:12;;;;;;;7.25;1.90;;;19.00;99.90;;;;;;5033453;28;20056;-46
2021/05/07 13:30:19;;;;;;;12.68;2.15;;;19.00;99.90;;;;;;5048588;28;20040;-48
2021/05/07 13:33:26;;;;;;;8.73;1.98;;;19.10;99.90;;;;;;5049444;28;20040;-47
2021/05/07 13:36:32;;;;;;;6.43;1.98;;;18.90;99.90;;;;;;5046446;28;20045;-47
2021/05/07 13:39:36;;;;;;;8.77;1.90;;;18.90;99.90;;;;;;5040510;28;20048;-47
2021/05/07 13:42:43;;;;;;;7.05;1.85;;;19.00;99.90;;;;;;5048694;28;20037;-48
2021/05/07 13:45:48;;;;;;;12.95;1.67;;;19.10;99.90;;;;;;5049478;28;20040;-47
2021/05/07 13:48:53;;;;;;;7.63;1.67;;;19.10;99.90;;;;;;5049538;28;20257;-49
2021/05/07 13:51:58;;;;;;;6.50;1.65;;;19.10;99.90;;;;;;5036719;28;20040;-48
2021/05/07 13:55:03;;;;;;;5.63;1.52;;;19.20;99.90;;;;;;5047717;28;20041;-49
2021/05/07 13:58:08;;;;;;;5.47;1.20;;;19.40;99.90;;;;;;5049333;28;20044;-53
2021/05/07 14:01:12;;;;;;;5.43;1.95;;;19.60;99.90;;;;;;5048446;28;20041;-53
2021/05/07 14:04:17;;;;;;;9.15;3.20;;;19.80;99.90;;;;;;5049211;28;20047;-49
2021/05/07 14:07:22;;;;;;;8.10;2.20;;;19.90;99.90;;;;;;5036905;28;20044;-47
2021/05/07 14:10:27;;;;;;;9.15;2.00;;;19.90;99.90;;;;;;5049101;28;20050;-47
2021/05/07 14:13:31;;;;;;;6.63;1.75;;;19.90;99.90;;;;;;5049113;28;20042;-48
2021/05/07 14:16:42;;;;;;;2.85;1.33;;;19.80;99.90;;;;;;5049409;28;20519;-48
2021/05/07 14:19:46;;;;;;;4.00;1.35;;;19.60;99.90;;;;;;5049459;28;20045;-48
2021/05/07 14:22:51;;;;;;;20.88;2.22;;;19.50;99.90;;;;;;5049371;28;20045;-46
2021/05/07 14:25:56;;;;;;;9.50;1.30;;;19.20;99.90;;;;;;5048592;28;20403;-46
2021/05/07 14:29:01;;;;;;;6.38;1.35;;;19.20;99.90;;;;;;5049381;28;20525;-47
2021/05/07 14:32:05;;;;;;;5.03;1.05;;;19.40;99.90;;;;;;5049248;28;20057;-46
2021/05/07 14:35:10;;;;;;;5.30;1.13;;;19.50;99.90;;;;;;5049246;28;20052;-47
2021/05/07 14:38:15;;;;;;;4.70;1.10;;;19.80;99.90;;;;;;5049382;28;20643;-47
2021/05/07 14:41:19;;;;;;;5.55;0.93;;;20.10;99.90;;;;;;5046844;28;20045;-47
2021/05/07 14:44:23;;;;;;;5.30;1.00;;;20.50;99.90;;;;;;5035888;28;20411;-47
2021/05/07 14:47:27;;;;;;;5.40;1.05;;;20.90;99.90;;;;;;5033183;28;20036;-52
2021/05/07 14:50:31;;;;;;;4.03;1.50;;;21.00;99.90;;;;;;5029374;28;20042;-49
2021/05/07 14:53:35;;;;;;;3.75;1.00;;;21.30;99.90;;;;;;5028769;28;20034;-50
2021/05/07 14:56:39;;;;;;;6.20;0.93;;;21.30;99.90;;;;;;5029051;28;20057;-53
2021/05/07 14:59:44;;;;;;;3.38;0.90;;;20.90;99.90;;;;;;5041643;28;20026;-47
2021/05/07 15:02:48;;;;;;;8.10;1.15;;;20.70;99.90;;;;;;5028886;28;20060;-52
2021/05/07 15:05:55;;;;;;;4.07;1.27;;;20.70;99.90;;;;;;5039157;28;20054;-54
2021/05/07 15:08:59;;;;;;;5.03;1.00;;;20.80;99.90;;;;;;5048413;28;20061;-53
2021/05/07 15:12:04;;;;;;;5.10;0.95;;;21.10;99.90;;;;;;5056609;28;20528;-46
2021/05/07 15:15:10;;;;;;;5.85;1.05;;;21.10;99.90;;;;;;5051198;28;20040;-51
2021/05/07 15:18:15;;;;;;;3.30;1.02;;;21.10;99.90;;;;;;5045303;28;20247;-53
2021/05/07 15:21:19;;;;;;;5.80;1.13;;;20.70;99.90;;;;;;5049424;28;20052;-49
2021/05/07 15:24:23;;;;;;;4.70;1.27;;;20.80;99.90;;;;;;5049736;28;20048;-49
2021/05/07 15:27:28;;;;;;;8.63;1.38;;;21.00;99.90;;;;;;5054793;28;20036;-52
2021/05/07 15:30:33;;;;;;;8.60;1.63;;;20.90;99.90;;;;;;5050818;28;20041;-49
2021/05/07 15:33:38;;;;;;;5.63;1.40;;;20.60;99.90;;;;;;5050486;28;20033;-54
2021/05/07 15:36:44;;;;;;;5.93;1.30;;;20.50;99.90;;;;;;5052290;28;20047;-49
2021/05/07 15:39:48;;;;;;;7.20;1.30;;;20.50;99.90;;;;;;5052482;28;20040;-47
2021/05/07 15:42:52;;;;;;;9.50;1.58;;;20.50;99.90;;;;;;5045439;28;20040;-50
2021/05/07 15:45:56;;;;;;;7.75;1.70;;;20.20;99.90;;;;;;5049922;28;20040;-46
2021/05/07 15:49:00;;;;;;;6.60;1.27;;;20.20;99.90;;;;;;5043947;28;20426;-48
2021/05/07 15:52:07;;;;;;;7.72;1.30;;;20.10;99.90;;;;;;5044549;28;20043;-49
2021/05/07 15:55:11;;;;;;;7.93;1.77;;;19.90;99.90;;;;;;5051940;28;20380;-49
2021/05/07 15:58:15;;;;;;;6.35;1.40;;;19.80;99.90;;;;;;5056044;28;20044;-47
2021/05/07 16:01:19;;;;;;;12.82;1.77;;;19.60;99.90;;;;;;5055653;28;20024;-47
2021/05/07 16:04:24;;;;;;;8.90;1.65;;;19.60;99.90;;;;;;5055566;28;20039;-49
2021/05/07 16:07:28;;;;;;;3.22;1.00;;;19.60;99.90;;;;;;5051834;28;20040;-48